Time;durP1;ratioP1;P1;durP2;ratioP2;P2;SDS_P1;SDS_P2;PMS_P1;PMS_P2;Temp;Humidity;BMP_temperature;BMP_pressure;BME280_temperature;BME280_humidity;BME280_pressure;Samples;Min_cycle;Max_cycle;Signal;HPM_P1;HPM_P2
2023/12/09 00:03:09;;;;;;;19.02;17.05;;;;;;;;;;10032936;28;20046;-71
2023/12/09 00:08:01;;;;;;;18.70;16.75;;;;;;;;;;10031634;28;20397;-71
2023/12/09 00:12:54;;;;;;;18.23;16.17;;;;;;;;;;10031798;28;20116;-71
2023/12/09 00:17:46;;;;;;;19.75;17.63;;;;;;;;;;10031791;28;20174;-72
2023/12/09 00:22:38;;;;;;;18.65;16.75;;;;;;;;;;10031136;28;20049;-71
2023/12/09 00:27:30;;;;;;;24.40;18.33;;;;;;;;;;10024232;28;20043;-72
2023/12/09 00:32:22;;;;;;;20.98;18.73;;;;;;;;;;10025524;28;20038;-71
2023/12/09 00:37:14;;;;;;;19.50;16.48;;;;;;;;;;10030811;28;20088;-72
2023/12/09 00:42:06;;;;;;;22.48;20.08;;;;;;;;;;10030081;28;20115;-71
2023/12/09 00:46:58;;;;;;;21.55;19.20;;;;;;;;;;10031136;28;20050;-71
2023/12/09 00:51:50;;;;;;;20.75;17.95;;;;;;;;;;10030073;28;20120;-71
2023/12/09 00:56:41;;;;;;;28.15;24.08;;;;;;;;;;10030434;28;20295;-71
2023/12/09 01:01:33;;;;;;;27.52;22.88;;;;;;;;;;10029303;28;20125;-72
2023/12/09 01:06:27;;;;;;;25.67;22.17;;;;;;;;;;10029828;28;20076;-71
2023/12/09 01:11:19;;;;;;;26.08;23.17;;;;;;;;;;10029090;28;20050;-72
2023/12/09 01:16:10;;;;;;;25.33;22.63;;;;;;;;;;10029591;28;20069;-71
2023/12/09 01:21:03;;;;;;;28.30;25.27;;;;;;;;;;10029130;28;20077;-71
2023/12/09 01:25:54;;;;;;;30.13;24.73;;;;;;;;;;10029578;28;20045;-71
2023/12/09 01:30:46;;;;;;;26.40;23.55;;;;;;;;;;10029159;28;20038;-71
2023/12/09 01:35:38;;;;;;;26.55;23.65;;;;;;;;;;10025328;28;20067;-72
2023/12/09 01:40:30;;;;;;;29.00;24.80;;;;;;;;;;10025415;28;20096;-72
2023/12/09 01:45:22;;;;;;;24.58;21.55;;;;;;;;;;10025444;28;20046;-71
2023/12/09 01:50:17;;;;;;;26.92;23.55;;;;;;;;;;10024929;28;20038;-71
2023/12/09 01:55:10;;;;;;;24.98;20.50;;;;;;;;;;10025433;28;20487;-71
2023/12/09 02:00:03;;;;;;;25.55;22.50;;;;;;;;;;10024267;28;20523;-72
2023/12/09 02:04:56;;;;;;;27.00;20.58;;;;;;;;;;10017119;28;20449;-72
2023/12/09 02:09:48;;;;;;;25.25;21.52;;;;;;;;;;10023452;28;20074;-71
2023/12/09 02:14:46;;;;;;;24.90;21.05;;;;;;;;;;10024390;28;20380;-71
2023/12/09 02:19:38;;;;;;;28.00;22.10;;;;;;;;;;10024569;28;20050;-72
2023/12/09 02:24:30;;;;;;;26.67;23.45;;;;;;;;;;10023142;28;20136;-72
2023/12/09 02:29:24;;;;;;;25.15;22.30;;;;;;;;;;10022411;28;20056;-71
2023/12/09 02:34:16;;;;;;;24.40;21.85;;;;;;;;;;10015291;28;20121;-72
2023/12/09 02:39:10;;;;;;;26.05;22.08;;;;;;;;;;10022061;28;20231;-71
2023/12/09 02:44:04;;;;;;;22.38;20.05;;;;;;;;;;10016219;28;20057;-71
2023/12/09 02:48:59;;;;;;;23.67;21.13;;;;;;;;;;10023229;28;20033;-71
2023/12/09 02:53:51;;;;;;;24.90;22.30;;;;;;;;;;10015157;28;20562;-72
2023/12/09 02:58:43;;;;;;;25.10;21.92;;;;;;;;;;10019176;28;20042;-71
2023/12/09 03:03:35;;;;;;;27.85;23.30;;;;;;;;;;10012703;28;20061;-71
2023/12/09 03:08:27;;;;;;;25.27;21.67;;;;;;;;;;10016541;28;20042;-71
2023/12/09 03:13:19;;;;;;;24.88;22.08;;;;;;;;;;10021958;28;20046;-71
2023/12/09 03:18:11;;;;;;;27.58;22.27;;;;;;;;;;10022239;28;20057;-71
2023/12/09 03:23:03;;;;;;;25.05;21.88;;;;;;;;;;10020545;28;20088;-72
2023/12/09 03:27:55;;;;;;;27.90;23.67;;;;;;;;;;10020749;28;20092;-71
2023/12/09 03:32:49;;;;;;;28.30;24.13;;;;;;;;;;10020561;28;20129;-71
2023/12/09 03:37:40;;;;;;;25.85;21.95;;;;;;;;;;10022017;28;20042;-71
2023/12/09 03:42:32;;;;;;;26.65;21.70;;;;;;;;;;10019952;28;20449;-71
2023/12/09 03:47:24;;;;;;;23.95;21.45;;;;;;;;;;10022056;28;20050;-72
2023/12/09 03:52:20;;;;;;;20.20;18.05;;;;;;;;;;10021694;28;20045;-72
2023/12/09 03:57:14;;;;;;;23.73;20.48;;;;;;;;;;10021503;28;20137;-71
2023/12/09 04:02:06;;;;;;;23.88;21.10;;;;;;;;;;10020945;28;20045;-71
2023/12/09 04:06:58;;;;;;;25.33;21.92;;;;;;;;;;10020959;28;20199;-71
2023/12/09 04:11:50;;;;;;;29.50;23.30;;;;;;;;;;10021010;28;20050;-71
2023/12/09 04:16:42;;;;;;;25.52;21.67;;;;;;;;;;10020739;28;20045;-71
2023/12/09 04:21:34;;;;;;;23.00;20.38;;;;;;;;;;10021173;28;20070;-71
2023/12/09 04:26:26;;;;;;;23.15;20.50;;;;;;;;;;10023074;28;20129;-72
2023/12/09 04:31:18;;;;;;;24.80;20.30;;;;;;;;;;10021306;28;20101;-72
2023/12/09 04:36:11;;;;;;;25.35;21.73;;;;;;;;;;10027881;28;20061;-71
2023/12/09 04:41:04;;;;;;;23.60;20.58;;;;;;;;;;10027087;28;20198;-71
2023/12/09 04:45:56;;;;;;;25.70;22.50;;;;;;;;;;10028001;28;20071;-72
2023/12/09 04:50:48;;;;;;;23.35;20.77;;;;;;;;;;10027288;28;20112;-71
2023/12/09 04:55:40;;;;;;;24.75;19.13;;;;;;;;;;10027042;28;20041;-71
2023/12/09 05:00:32;;;;;;;24.58;21.98;;;;;;;;;;10024540;28;20121;-71
2023/12/09 05:05:25;;;;;;;23.52;20.35;;;;;;;;;;10026763;28;20082;-71
2023/12/09 05:10:17;;;;;;;19.02;17.05;;;;;;;;;;10026515;28;20061;-71
2023/12/09 05:15:09;;;;;;;22.13;19.65;;;;;;;;;;10026181;28;20049;-72
2023/12/09 05:20:03;;;;;;;26.95;22.20;;;;;;;;;;10024255;28;20462;-72
2023/12/09 05:24:55;;;;;;;25.90;20.92;;;;;;;;;;10025904;28;20049;-71
2023/12/09 05:29:47;;;;;;;28.83;25.05;;;;;;;;;;10025285;28;20049;-72
2023/12/09 05:34:38;;;;;;;25.05;21.15;;;;;;;;;;10024362;28;20816;-71
2023/12/09 05:39:30;;;;;;;102.45;87.88;;;;;;;;;;10027539;28;20042;-71
2023/12/09 05:44:22;;;;;;;32.38;28.88;;;;;;;;;;10023895;28;20120;-72
2023/12/09 05:49:14;;;;;;;67.85;43.47;;;;;;;;;;10026853;28;20046;-72
2023/12/09 05:54:06;;;;;;;32.97;26.38;;;;;;;;;;10023833;28;20065;-72
2023/12/09 05:58:58;;;;;;;42.10;34.55;;;;;;;;;;10024908;28;20030;-72
2023/12/09 06:03:50;;;;;;;24.92;22.00;;;;;;;;;;10025166;28;20041;-71
2023/12/09 06:08:42;;;;;;;29.80;26.10;;;;;;;;;;10024749;28;20066;-71
2023/12/09 06:13:34;;;;;;;25.25;21.60;;;;;;;;;;10022896;28;20046;-71
2023/12/09 06:18:26;;;;;;;26.55;22.05;;;;;;;;;;10024432;28;20034;-71
2023/12/09 06:23:18;;;;;;;29.98;23.63;;;;;;;;;;10024282;28;20364;-71
2023/12/09 06:28:10;;;;;;;26.83;22.17;;;;;;;;;;10023994;28;20054;-72
2023/12/09 06:33:02;;;;;;;32.63;25.60;;;;;;;;;;10024068;28;20053;-71
2023/12/09 06:37:54;;;;;;;31.05;24.83;;;;;;;;;;10023628;28;20041;-71
2023/12/09 06:42:47;;;;;;;34.10;27.10;;;;;;;;;;10006556;28;20043;-71
2023/12/09 06:47:38;;;;;;;31.00;25.80;;;;;;;;;;10019541;28;20073;-72
2023/12/09 06:52:30;;;;;;;32.40;27.25;;;;;;;;;;10027109;28;20476;-71
2023/12/09 06:57:22;;;;;;;33.95;26.92;;;;;;;;;;10023777;28;20077;-71
2023/12/09 07:02:14;;;;;;;37.53;30.15;;;;;;;;;;10010320;28;20115;-71
2023/12/09 07:07:06;;;;;;;39.20;28.42;;;;;;;;;;10038028;28;20427;-71
2023/12/09 07:12:09;;;;;;;36.47;29.13;;;;;;;;;;10012601;28;20137;-71
2023/12/09 07:17:00;;;;;;;36.55;28.58;;;;;;;;;;10015050;28;20076;-71
2023/12/09 07:21:52;;;;;;;33.53;28.17;;;;;;;;;;10020183;28;20082;-71
2023/12/09 07:26:44;;;;;;;33.15;26.48;;;;;;;;;;10025991;28;20042;-72
2023/12/09 07:31:36;;;;;;;34.42;26.92;;;;;;;;;;10024960;28;20119;-72
2023/12/09 07:36:28;;;;;;;37.47;28.92;;;;;;;;;;10019479;28;20377;-71
2023/12/09 07:41:20;;;;;;;33.08;27.23;;;;;;;;;;10019914;28;20053;-72
2023/12/09 07:46:12;;;;;;;37.03;29.98;;;;;;;;;;10021670;28;20042;-72
2023/12/09 07:51:04;;;;;;;36.90;30.05;;;;;;;;;;10024631;28;20488;-72
2023/12/09 07:55:57;;;;;;;37.40;30.38;;;;;;;;;;10025907;28;20472;-70
2023/12/09 08:00:49;;;;;;;35.15;28.02;;;;;;;;;;10023488;28;20069;-71
2023/12/09 08:05:40;;;;;;;40.08;30.50;;;;;;;;;;10025256;28;20420;-71
2023/12/09 08:10:36;;;;;;;36.75;29.85;;;;;;;;;;10032105;28;20046;-72
2023/12/09 08:15:28;;;;;;;37.95;32.83;;;;;;;;;;10033709;28;20045;-72
2023/12/09 08:20:20;;;;;;;40.97;33.53;;;;;;;;;;10032027;28;20042;-72
2023/12/09 08:25:12;;;;;;;61.42;47.10;;;;;;;;;;10032546;28;20053;-72
2023/12/09 08:30:10;;;;;;;38.80;32.42;;;;;;;;;;10031515;28;20042;-72
2023/12/09 08:35:03;;;;;;;35.20;30.25;;;;;;;;;;10032495;28;20085;-72
2023/12/09 08:40:11;;;;;;;41.83;33.20;;;;;;;;;;10031751;28;20797;-71
2023/12/09 08:45:04;;;;;;;38.22;30.65;;;;;;;;;;10031612;28;20054;-72
2023/12/09 08:49:56;;;;;;;39.22;29.85;;;;;;;;;;10031732;28;20067;-71
2023/12/09 08:54:47;;;;;;;37.55;28.55;;;;;;;;;;10031626;28;20100;-72
2023/12/09 08:59:39;;;;;;;34.75;30.10;;;;;;;;;;10030653;28;20837;-71
2023/12/09 09:04:31;;;;;;;36.08;29.88;;;;;;;;;;10028273;28;20049;-71
2023/12/09 09:09:23;;;;;;;42.38;31.67;;;;;;;;;;10025790;28;20054;-71
2023/12/09 09:14:15;;;;;;;38.20;31.45;;;;;;;;;;10027442;28;20062;-71
2023/12/09 09:19:07;;;;;;;38.05;30.67;;;;;;;;;;10026566;28;20041;-72
2023/12/09 09:23:59;;;;;;;42.95;31.85;;;;;;;;;;10027553;28;20495;-71
2023/12/09 09:28:51;;;;;;;41.47;33.83;;;;;;;;;;10023617;28;20045;-71
2023/12/09 09:33:43;;;;;;;38.83;32.55;;;;;;;;;;10024477;28;20081;-72
2023/12/09 09:38:35;;;;;;;38.78;32.97;;;;;;;;;;10023927;28;20058;-71
2023/12/09 09:43:30;;;;;;;32.85;29.27;;;;;;;;;;10024141;28;20058;-72
2023/12/09 09:48:24;;;;;;;33.92;25.60;;;;;;;;;;10022429;28;20045;-72
2023/12/09 09:53:20;;;;;;;29.75;25.55;;;;;;;;;;10021229;28;20068;-71
2023/12/09 09:58:13;;;;;;;28.63;24.42;;;;;;;;;;10022187;28;20041;-72
2023/12/09 10:03:05;;;;;;;27.30;23.65;;;;;;;;;;10026424;28;20069;-72
2023/12/09 10:07:57;;;;;;;26.13;23.30;;;;;;;;;;10023253;28;20092;-71
2023/12/09 10:12:50;;;;;;;26.50;22.95;;;;;;;;;;10026308;28;20053;-71
2023/12/09 10:17:42;;;;;;;27.25;21.60;;;;;;;;;;10024851;28;20063;-72
2023/12/09 10:22:35;;;;;;;21.25;19.00;;;;;;;;;;10024638;28;20042;-72
2023/12/09 10:27:27;;;;;;;24.92;21.10;;;;;;;;;;10024934;28;20042;-71
2023/12/09 10:32:20;;;;;;;25.17;21.80;;;;;;;;;;10024006;28;20158;-72
2023/12/09 10:37:12;;;;;;;23.58;19.33;;;;;;;;;;10024080;28;20069;-72
2023/12/09 10:42:04;;;;;;;21.40;18.55;;;;;;;;;;10024280;28;20042;-72
2023/12/09 10:46:56;;;;;;;24.55;20.48;;;;;;;;;;10023591;28;20129;-71
2023/12/09 10:51:48;;;;;;;20.60;17.45;;;;;;;;;;10023684;28;20049;-69
2023/12/09 10:56:40;;;;;;;17.77;14.73;;;;;;;;;;10020467;28;20037;-69
2023/12/09 11:01:32;;;;;;;15.45;13.38;;;;;;;;;;10020067;28;20180;-70
2023/12/09 11:06:27;;;;;;;18.48;16.48;;;;;;;;;;10022489;28;20046;-69
2023/12/09 11:11:19;;;;;;;16.27;14.15;;;;;;;;;;10023124;28;20136;-69
2023/12/09 11:16:13;;;;;;;17.58;15.70;;;;;;;;;;10024764;28;20046;-69
2023/12/09 11:21:08;;;;;;;18.40;15.57;;;;;;;;;;10024060;28;20384;-69
2023/12/09 11:26:00;;;;;;;12.55;11.25;;;;;;;;;;10116472;22;20110;-69
2023/12/09 11:30:56;;;;;;;13.30;11.77;;;;;;;;;;10097028;28;20044;-69
2023/12/09 11:35:48;;;;;;;13.18;11.73;;;;;;;;;;10099931;28;20422;-68
2023/12/09 11:40:41;;;;;;;16.60;14.75;;;;;;;;;;10099878;28;20534;-69
2023/12/09 11:45:32;;;;;;;14.13;12.52;;;;;;;;;;10107723;28;20460;-69
2023/12/09 11:50:27;;;;;;;13.50;12.13;;;;;;;;;;10107466;28;20471;-69
2023/12/09 11:55:19;;;;;;;12.32;10.15;;;;;;;;;;10107607;28;20064;-70
2023/12/09 12:00:12;;;;;;;14.13;11.95;;;;;;;;;;10111309;28;20068;-70
2023/12/09 12:05:08;;;;;;;15.70;12.10;;;;;;;;;;10109669;28;20045;-69
2023/12/09 12:10:01;;;;;;;10.10;8.85;;;;;;;;;;10110620;28;20037;-69
2023/12/09 12:14:52;;;;;;;9.98;8.98;;;;;;;;;;10110914;28;20041;-70
2023/12/09 12:19:44;;;;;;;8.07;7.28;;;;;;;;;;10110792;28;20156;-69
2023/12/09 12:24:40;;;;;;;8.23;7.25;;;;;;;;;;10109587;28;20088;-70
2023/12/09 12:29:32;;;;;;;10.35;9.23;;;;;;;;;;10106446;28;20052;-69
2023/12/09 12:34:24;;;;;;;10.98;9.80;;;;;;;;;;10083256;28;20072;-69
2023/12/09 12:39:16;;;;;;;10.93;8.63;;;;;;;;;;10082415;28;20049;-71
2023/12/09 12:44:08;;;;;;;11.20;10.10;;;;;;;;;;10109245;28;20052;-71
2023/12/09 12:49:00;;;;;;;14.23;11.98;;;;;;;;;;10107898;28;20091;-72
2023/12/09 12:53:52;;;;;;;12.75;11.45;;;;;;;;;;10108476;28;20041;-72
2023/12/09 12:58:44;;;;;;;10.60;9.50;;;;;;;;;;10097618;28;20098;-72
2023/12/09 13:03:36;;;;;;;10.13;9.10;;;;;;;;;;10067564;28;20078;-72
2023/12/09 13:08:28;;;;;;;10.00;8.60;;;;;;;;;;10081642;28;20052;-72
2023/12/09 13:13:20;;;;;;;10.52;9.52;;;;;;;;;;10108481;28;20068;-72
2023/12/09 13:18:12;;;;;;;11.60;9.90;;;;;;;;;;10107480;28;20461;-72
2023/12/09 13:23:04;;;;;;;10.43;9.43;;;;;;;;;;10107039;28;20115;-72
2023/12/09 13:27:57;;;;;;;10.70;9.60;;;;;;;;;;10107560;28;20045;-72
2023/12/09 13:32:49;;;;;;;16.13;14.52;;;;;;;;;;10106922;28;20036;-72
2023/12/09 13:37:42;;;;;;;11.40;10.20;;;;;;;;;;10068112;28;20467;-72
2023/12/09 13:42:35;;;;;;;10.85;9.70;;;;;;;;;;10067025;28;20088;-72
2023/12/09 13:47:27;;;;;;;11.57;9.00;;;;;;;;;;10067039;28;20057;-72
2023/12/09 13:52:19;;;;;;;10.50;9.27;;;;;;;;;;10066136;28;20084;-72
2023/12/09 13:57:10;;;;;;;10.02;9.07;;;;;;;;;;10066719;28;20045;-72
2023/12/09 14:02:02;;;;;;;13.30;10.27;;;;;;;;;;10065995;28;20510;-72
2023/12/09 14:06:54;;;;;;;9.45;8.45;;;;;;;;;;10065421;28;20077;-72
2023/12/09 14:11:46;;;;;;;10.43;9.20;;;;;;;;;;10065791;28;20045;-72
2023/12/09 14:16:40;;;;;;;15.60;13.80;;;;;;;;;;10065838;28;20111;-71
2023/12/09 14:21:33;;;;;;;19.98;15.73;;;;;;;;;;10065588;28;20037;-72
2023/12/09 14:26:28;;;;;;;11.20;9.30;;;;;;;;;;10065598;28;20054;-72
2023/12/09 14:31:20;;;;;;;9.38;8.40;;;;;;;;;;10065933;28;20073;-72
2023/12/09 14:36:11;;;;;;;11.00;9.90;;;;;;;;;;10067308;28;20042;-72
2023/12/09 14:41:04;;;;;;;9.13;8.23;;;;;;;;;;10066240;28;20072;-72
2023/12/09 14:45:56;;;;;;;9.73;7.97;;;;;;;;;;10066575;28;20064;-71
2023/12/09 14:50:48;;;;;;;9.55;8.60;;;;;;;;;;10081541;28;20376;-71
2023/12/09 14:55:40;;;;;;;10.05;8.63;;;;;;;;;;10065252;28;20049;-72
2023/12/09 15:00:32;;;;;;;10.70;9.60;;;;;;;;;;10065507;28;20069;-71
2023/12/09 15:05:25;;;;;;;11.98;9.93;;;;;;;;;;10065390;28;20059;-71
2023/12/09 15:10:17;;;;;;;21.42;19.30;;;;;;;;;;10044198;28;20123;-70
2023/12/09 15:15:10;;;;;;;20.40;17.42;;;;;;;;;;10098813;28;20039;-70
2023/12/09 15:20:02;;;;;;;14.65;12.25;;;;;;;;;;10104100;28;20094;-69
2023/12/09 15:24:54;;;;;;;21.20;16.58;;;;;;;;;;10101614;28;20052;-69
2023/12/09 15:29:46;;;;;;;13.70;12.23;;;;;;;;;;10104017;28;20414;-69
2023/12/09 15:34:38;;;;;;;12.00;10.80;;;;;;;;;;10104005;28;20068;-69
2023/12/09 15:39:30;;;;;;;13.13;11.45;;;;;;;;;;10069311;28;20048;-69
2023/12/09 15:44:22;;;;;;;16.85;13.40;;;;;;;;;;10063216;28;20053;-69
2023/12/09 15:49:14;;;;;;;17.38;15.35;;;;;;;;;;10059427;28;20425;-69
2023/12/09 15:54:07;;;;;;;28.27;24.33;;;;;;;;;;10070263;28;20038;-69
2023/12/09 15:58:59;;;;;;;20.40;17.13;;;;;;;;;;10064969;28;20369;-70
2023/12/09 16:03:52;;;;;;;19.60;15.98;;;;;;;;;;10061653;28;20467;-70
2023/12/09 16:08:44;;;;;;;20.08;15.05;;;;;;;;;;10062035;28;20117;-70
2023/12/09 16:13:36;;;;;;;21.85;18.77;;;;;;;;;;10052984;28;20392;-69
2023/12/09 16:18:28;;;;;;;21.15;17.75;;;;;;;;;;10062494;28;20099;-72
2023/12/09 16:23:20;;;;;;;21.92;17.45;;;;;;;;;;10061501;28;20099;-72
2023/12/09 16:28:12;;;;;;;25.23;17.85;;;;;;;;;;10065242;28;20060;-72
2023/12/09 16:33:04;;;;;;;26.23;19.45;;;;;;;;;;10066856;28;20136;-72
2023/12/09 16:37:56;;;;;;;24.92;19.52;;;;;;;;;;10069835;28;20045;-72
2023/12/09 16:42:48;;;;;;;26.80;22.27;;;;;;;;;;10071710;28;20076;-72
2023/12/09 16:47:40;;;;;;;24.98;19.70;;;;;;;;;;10069801;28;20054;-72
2023/12/09 16:52:33;;;;;;;22.33;18.63;;;;;;;;;;10070071;28;20149;-72
2023/12/09 16:57:25;;;;;;;23.90;18.30;;;;;;;;;;10069649;28;20068;-72
2023/12/09 17:02:17;;;;;;;22.98;18.50;;;;;;;;;;10069233;28;20364;-72
2023/12/09 17:07:09;;;;;;;24.85;18.95;;;;;;;;;;10069697;28;20052;-72
2023/12/09 17:12:01;;;;;;;24.17;19.15;;;;;;;;;;10068721;28;20046;-72
2023/12/09 17:16:53;;;;;;;20.30;16.95;;;;;;;;;;10073591;28;20125;-71
2023/12/09 17:21:46;;;;;;;25.52;20.90;;;;;;;;;;10064642;28;20041;-73
2023/12/09 17:26:37;;;;;;;25.80;20.75;;;;;;;;;;10059962;28;20563;-72
2023/12/09 17:31:30;;;;;;;26.40;21.13;;;;;;;;;;10075515;28;20494;-72
2023/12/09 17:36:25;;;;;;;27.60;22.63;;;;;;;;;;10066426;28;20034;-73
2023/12/09 17:41:17;;;;;;;22.38;19.65;;;;;;;;;;10067543;28;20084;-72
2023/12/09 17:46:09;;;;;;;27.58;23.02;;;;;;;;;;10070241;28;20132;-73
2023/12/09 17:51:00;;;;;;;30.65;22.77;;;;;;;;;;10067073;28;20413;-72
2023/12/09 17:55:52;;;;;;;29.80;20.95;;;;;;;;;;10067996;28;20041;-72
2023/12/09 18:00:44;;;;;;;24.02;20.00;;;;;;;;;;10067866;28;20151;-72
2023/12/09 18:05:36;;;;;;;26.55;20.27;;;;;;;;;;10057539;28;20053;-72
2023/12/09 18:10:28;;;;;;;22.17;19.60;;;;;;;;;;10062823;28;20065;-72
2023/12/09 18:15:20;;;;;;;22.33;19.45;;;;;;;;;;10066910;28;20037;-72
2023/12/09 18:20:13;;;;;;;20.33;17.33;;;;;;;;;;10067344;28;20049;-72
2023/12/09 18:25:05;;;;;;;20.42;18.08;;;;;;;;;;10075183;28;20156;-72
2023/12/09 18:29:57;;;;;;;18.20;15.73;;;;;;;;;;10064956;28;20052;-72
2023/12/09 18:34:49;;;;;;;16.95;14.25;;;;;;;;;;10067679;28;20132;-72
2023/12/09 18:39:41;;;;;;;17.63;15.93;;;;;;;;;;10068428;28;20514;-72
2023/12/09 18:44:33;;;;;;;15.20;13.07;;;;;;;;;;10071552;28;20041;-72
2023/12/09 18:49:25;;;;;;;15.25;13.55;;;;;;;;;;10066155;28;20049;-72
2023/12/09 18:54:17;;;;;;;13.93;12.52;;;;;;;;;;10065846;28;20060;-72
2023/12/09 18:59:09;;;;;;;16.05;14.35;;;;;;;;;;10072219;28;20041;-72
2023/12/09 19:04:02;;;;;;;16.45;14.32;;;;;;;;;;10063405;28;20049;-72
2023/12/09 19:08:54;;;;;;;19.63;17.52;;;;;;;;;;10062892;28;20041;-72
2023/12/09 19:13:46;;;;;;;21.90;18.02;;;;;;;;;;10071997;28;20041;-72
2023/12/09 19:18:38;;;;;;;19.88;15.00;;;;;;;;;;10053334;28;20487;-72
2023/12/09 19:23:30;;;;;;;22.60;18.38;;;;;;;;;;10054017;28;20073;-73
2023/12/09 19:28:21;;;;;;;26.45;20.25;;;;;;;;;;10054784;28;20042;-72
2023/12/09 19:33:13;;;;;;;36.05;27.02;;;;;;;;;;10054140;28;20081;-72
2023/12/09 19:38:05;;;;;;;39.08;29.63;;;;;;;;;;10052405;28;20041;-72
2023/12/09 19:42:57;;;;;;;38.67;29.40;;;;;;;;;;10073122;28;20431;-72
2023/12/09 19:47:50;;;;;;;29.17;23.75;;;;;;;;;;10103309;28;20348;-73
2023/12/09 19:52:43;;;;;;;31.15;24.42;;;;;;;;;;10104273;28;20041;-72
2023/12/09 19:57:35;;;;;;;35.72;25.35;;;;;;;;;;10102890;28;20408;-72
2023/12/09 20:02:26;;;;;;;33.00;24.83;;;;;;;;;;10106049;28;20063;-72
2023/12/09 20:07:19;;;;;;;38.55;24.85;;;;;;;;;;10111482;28;20080;-72
2023/12/09 20:12:11;;;;;;;35.47;28.60;;;;;;;;;;10110952;28;20048;-73
2023/12/09 20:17:04;;;;;;;34.05;24.90;;;;;;;;;;10111784;28;20080;-73
2023/12/09 20:21:56;;;;;;;41.75;29.00;;;;;;;;;;10097463;28;20128;-73
2023/12/09 20:26:48;;;;;;;35.13;26.17;;;;;;;;;;10103197;28;20507;-73
2023/12/09 20:31:42;;;;;;;40.05;28.60;;;;;;;;;;10101361;28;20103;-73
2023/12/09 20:36:34;;;;;;;36.00;28.33;;;;;;;;;;10101952;28;20099;-73
2023/12/09 20:41:27;;;;;;;54.35;29.27;;;;;;;;;;10100936;28;20460;-72
2023/12/09 20:46:18;;;;;;;43.60;34.72;;;;;;;;;;10109707;28;20057;-73
2023/12/09 20:51:10;;;;;;;38.55;28.60;;;;;;;;;;10108627;28;20391;-73
2023/12/09 20:56:04;;;;;;;59.33;41.55;;;;;;;;;;10079111;28;20037;-72
2023/12/09 21:00:58;;;;;;;39.55;27.15;;;;;;;;;;10071567;28;20084;-70
2023/12/09 21:05:50;;;;;;;29.02;23.00;;;;;;;;;;10078109;28;20356;-71
2023/12/09 21:10:42;;;;;;;43.80;33.38;;;;;;;;;;10076149;28;20052;-71
2023/12/09 21:15:34;;;;;;;34.67;26.88;;;;;;;;;;10082135;28;20033;-72
2023/12/09 21:20:27;;;;;;;33.35;22.58;;;;;;;;;;10090794;28;20045;-73
2023/12/09 21:25:19;;;;;;;36.50;25.35;;;;;;;;;;10097528;28;20100;-72
2023/12/09 21:30:11;;;;;;;34.47;23.48;;;;;;;;;;10064276;28;20052;-73
2023/12/09 21:35:03;;;;;;;40.42;27.60;;;;;;;;;;10064334;28;20045;-71
2023/12/09 21:39:55;;;;;;;46.05;28.25;;;;;;;;;;10064302;28;20531;-71
2023/12/09 21:44:49;;;;;;;38.60;27.52;;;;;;;;;;10066120;28;20136;-71
2023/12/09 21:49:41;;;;;;;44.60;30.08;;;;;;;;;;10067293;28;20055;-72
2023/12/09 21:54:35;;;;;;;50.25;31.52;;;;;;;;;;10067568;28;20048;-71
2023/12/09 21:59:26;;;;;;;48.05;31.65;;;;;;;;;;10068130;28;20120;-72
2023/12/09 22:04:18;;;;;;;46.33;29.75;;;;;;;;;;10066508;28;20907;-74
2023/12/09 22:09:13;;;;;;;39.83;28.20;;;;;;;;;;10067007;28;20040;-73
2023/12/09 22:14:05;;;;;;;49.72;29.30;;;;;;;;;;10066669;28;20125;-73
2023/12/09 22:18:57;;;;;;;49.97;30.20;;;;;;;;;;10066736;28;20041;-73
2023/12/09 22:23:50;;;;;;;47.78;30.35;;;;;;;;;;10066170;28;20467;-73
2023/12/09 22:28:43;;;;;;;53.75;33.17;;;;;;;;;;10066203;28;20372;-72
2023/12/09 22:33:39;;;;;;;48.30;31.17;;;;;;;;;;10066121;28;20100;-73
2023/12/09 22:38:32;;;;;;;47.20;32.13;;;;;;;;;;10065950;28;20041;-72
2023/12/09 22:43:23;;;;;;;51.83;33.65;;;;;;;;;;10066111;28;20046;-72
2023/12/09 22:48:15;;;;;;;48.15;30.45;;;;;;;;;;10065709;28;20037;-72
2023/12/09 22:53:07;;;;;;;49.20;31.67;;;;;;;;;;10065239;28;20042;-72
2023/12/09 22:57:59;;;;;;;43.78;31.60;;;;;;;;;;10065686;28;20053;-72
2023/12/09 23:02:51;;;;;;;48.25;32.20;;;;;;;;;;10065142;28;20073;-72
2023/12/09 23:07:43;;;;;;;46.10;30.90;;;;;;;;;;10091285;28;20055;-71
2023/12/09 23:12:35;;;;;;;37.13;26.15;;;;;;;;;;10104933;28;20114;-72
2023/12/09 23:17:27;;;;;;;38.55;26.38;;;;;;;;;;10104530;28;20131;-73
2023/12/09 23:22:19;;;;;;;32.15;24.02;;;;;;;;;;10103981;28;20076;-74
2023/12/09 23:27:11;;;;;;;38.20;25.48;;;;;;;;;;10103450;28;20056;-71
2023/12/09 23:32:03;;;;;;;30.55;24.00;;;;;;;;;;10076060;28;20526;-73
2023/12/09 23:36:55;;;;;;;32.28;24.88;;;;;;;;;;10065273;28;20059;-74
2023/12/09 23:41:47;;;;;;;27.20;22.15;;;;;;;;;;10064109;28;20128;-72
2023/12/09 23:46:39;;;;;;;24.33;19.70;;;;;;;;;;10064673;28;20049;-72
2023/12/09 23:51:31;;;;;;;22.83;20.05;;;;;;;;;;10065201;28;20045;-73
2023/12/09 23:56:23;;;;;;;27.52;22.90;;;;;;;;;;10063742;28;20051;-72
